sensor_id;sensor_type;location;lat;lon;timestamp;P1;durP1;ratioP1;P2;durP2;ratioP2
35506;SDS011;36461;52.018;21.036;2023-11-21T00:00:48;11.30;;;8.00;;
35506;SDS011;36461;52.018;21.036;2023-11-21T00:03:36;12.30;;;7.90;;
35506;SDS011;36461;52.018;21.036;2023-11-21T00:06:05;12.00;;;8.40;;
35506;SDS011;36461;52.018;21.036;2023-11-21T00:08:37;11.40;;;7.40;;
35506;SDS011;36461;52.018;21.036;2023-11-21T00:11:05;12.10;;;8.00;;
35506;SDS011;36461;52.018;21.036;2023-11-21T00:13:34;11.20;;;7.40;;
35506;SDS011;36461;52.018;21.036;2023-11-21T00:16:03;11.80;;;7.40;;
35506;SDS011;36461;52.018;21.036;2023-11-21T00:18:32;10.40;;;7.30;;
35506;SDS011;36461;52.018;21.036;2023-11-21T00:21:00;13.20;;;8.00;;
35506;SDS011;36461;52.018;21.036;2023-11-21T00:23:28;11.10;;;7.20;;
35506;SDS011;36461;52.018;21.036;2023-11-21T00:25:57;12.40;;;7.90;;
35506;SDS011;36461;52.018;21.036;2023-11-21T00:28:26;11.70;;;8.40;;
35506;SDS011;36461;52.018;21.036;2023-11-21T00:30:54;11.00;;;8.50;;
35506;SDS011;36461;52.018;21.036;2023-11-21T00:33:22;11.90;;;8.30;;
35506;SDS011;36461;52.018;21.036;2023-11-21T00:35:51;11.70;;;8.00;;
35506;SDS011;36461;52.018;21.036;2023-11-21T00:38:20;10.40;;;7.80;;
35506;SDS011;36461;52.018;21.036;2023-11-21T00:40:48;11.50;;;8.30;;
35506;SDS011;36461;52.018;21.036;2023-11-21T00:43:16;13.60;;;8.90;;
35506;SDS011;36461;52.018;21.036;2023-11-21T00:45:45;14.40;;;9.00;;
35506;SDS011;36461;52.018;21.036;2023-11-21T00:48:17;13.00;;;9.00;;
35506;SDS011;36461;52.018;21.036;2023-11-21T00:50:46;13.90;;;9.80;;
35506;SDS011;36461;52.018;21.036;2023-11-21T00:53:14;13.70;;;9.90;;
35506;SDS011;36461;52.018;21.036;2023-11-21T00:55:42;15.00;;;10.20;;
35506;SDS011;36461;52.018;21.036;2023-11-21T00:58:11;13.80;;;9.90;;
35506;SDS011;36461;52.018;21.036;2023-11-21T01:00:39;15.20;;;10.60;;
35506;SDS011;36461;52.018;21.036;2023-11-21T01:03:07;16.90;;;10.90;;
35506;SDS011;36461;52.018;21.036;2023-11-21T01:05:36;15.40;;;10.50;;
35506;SDS011;36461;52.018;21.036;2023-11-21T01:08:04;18.10;;;11.20;;
35506;SDS011;36461;52.018;21.036;2023-11-21T01:10:33;16.50;;;11.20;;
35506;SDS011;36461;52.018;21.036;2023-11-21T01:13:04;17.80;;;11.70;;
35506;SDS011;36461;52.018;21.036;2023-11-21T01:15:36;16.40;;;11.10;;
35506;SDS011;36461;52.018;21.036;2023-11-21T01:18:04;15.20;;;10.90;;
35506;SDS011;36461;52.018;21.036;2023-11-21T01:20:33;16.90;;;11.00;;
35506;SDS011;36461;52.018;21.036;2023-11-21T01:23:01;15.90;;;11.30;;
35506;SDS011;36461;52.018;21.036;2023-11-21T01:25:29;17.30;;;11.10;;
35506;SDS011;36461;52.018;21.036;2023-11-21T01:27:57;16.10;;;11.40;;
35506;SDS011;36461;52.018;21.036;2023-11-21T01:30:25;15.80;;;10.50;;
35506;SDS011;36461;52.018;21.036;2023-11-21T01:32:53;15.30;;;10.60;;
35506;SDS011;36461;52.018;21.036;2023-11-21T01:35:22;15.80;;;11.20;;
35506;SDS011;36461;52.018;21.036;2023-11-21T01:37:50;18.00;;;11.50;;
35506;SDS011;36461;52.018;21.036;2023-11-21T01:40:18;15.80;;;10.90;;
35506;SDS011;36461;52.018;21.036;2023-11-21T01:42:47;18.00;;;10.90;;
35506;SDS011;36461;52.018;21.036;2023-11-21T01:45:16;16.90;;;11.70;;
35506;SDS011;36461;52.018;21.036;2023-11-21T01:47:44;19.70;;;13.00;;
35506;SDS011;36461;52.018;21.036;2023-11-21T01:50:14;19.00;;;13.10;;
35506;SDS011;36461;52.018;21.036;2023-11-21T01:52:45;21.00;;;13.30;;
35506;SDS011;36461;52.018;21.036;2023-11-21T01:55:16;21.20;;;13.10;;
35506;SDS011;36461;52.018;21.036;2023-11-21T01:57:56;19.50;;;14.20;;
35506;SDS011;36461;52.018;21.036;2023-11-21T02:00:25;18.10;;;12.90;;
35506;SDS011;36461;52.018;21.036;2023-11-21T02:02:57;20.00;;;13.50;;
35506;SDS011;36461;52.018;21.036;2023-11-21T02:05:27;22.70;;;14.20;;
35506;SDS011;36461;52.018;21.036;2023-11-21T02:07:59;22.10;;;14.80;;
35506;SDS011;36461;52.018;21.036;2023-11-21T02:10:28;20.80;;;13.40;;
35506;SDS011;36461;52.018;21.036;2023-11-21T02:12:59;20.10;;;13.90;;
35506;SDS011;36461;52.018;21.036;2023-11-21T02:15:31;22.10;;;14.30;;
35506;SDS011;36461;52.018;21.036;2023-11-21T02:17:59;23.60;;;14.90;;
35506;SDS011;36461;52.018;21.036;2023-11-21T02:20:29;24.40;;;16.30;;
35506;SDS011;36461;52.018;21.036;2023-11-21T02:22:58;25.00;;;15.00;;
35506;SDS011;36461;52.018;21.036;2023-11-21T02:25:28;24.80;;;16.00;;
35506;SDS011;36461;52.018;21.036;2023-11-21T02:27:59;25.60;;;16.00;;
35506;SDS011;36461;52.018;21.036;2023-11-21T02:30:30;24.90;;;17.00;;
35506;SDS011;36461;52.018;21.036;2023-11-21T02:33:01;30.80;;;18.60;;
35506;SDS011;36461;52.018;21.036;2023-11-21T02:35:31;31.30;;;19.00;;
35506;SDS011;36461;52.018;21.036;2023-11-21T02:38:00;25.10;;;17.10;;
35506;SDS011;36461;52.018;21.036;2023-11-21T02:40:28;26.40;;;17.60;;
35506;SDS011;36461;52.018;21.036;2023-11-21T02:42:57;28.30;;;17.60;;
35506;SDS011;36461;52.018;21.036;2023-11-21T02:45:27;29.50;;;18.80;;
35506;SDS011;36461;52.018;21.036;2023-11-21T02:47:56;31.40;;;19.20;;
35506;SDS011;36461;52.018;21.036;2023-11-21T02:50:26;31.70;;;19.70;;
35506;SDS011;36461;52.018;21.036;2023-11-21T02:52:55;30.70;;;19.50;;
35506;SDS011;36461;52.018;21.036;2023-11-21T02:55:26;28.00;;;17.50;;
35506;SDS011;36461;52.018;21.036;2023-11-21T02:57:55;25.30;;;17.00;;
35506;SDS011;36461;52.018;21.036;2023-11-21T03:00:24;28.90;;;17.30;;
35506;SDS011;36461;52.018;21.036;2023-11-21T03:02:55;27.40;;;17.50;;
35506;SDS011;36461;52.018;21.036;2023-11-21T03:05:26;24.60;;;15.90;;
35506;SDS011;36461;52.018;21.036;2023-11-21T03:07:57;27.10;;;17.60;;
35506;SDS011;36461;52.018;21.036;2023-11-21T03:10:26;28.40;;;17.40;;
35506;SDS011;36461;52.018;21.036;2023-11-21T03:12:56;27.40;;;15.90;;
35506;SDS011;36461;52.018;21.036;2023-11-21T03:15:25;23.40;;;15.20;;
35506;SDS011;36461;52.018;21.036;2023-11-21T03:17:53;23.30;;;14.90;;
35506;SDS011;36461;52.018;21.036;2023-11-21T03:20:21;23.20;;;14.60;;
35506;SDS011;36461;52.018;21.036;2023-11-21T03:22:49;21.90;;;15.30;;
35506;SDS011;36461;52.018;21.036;2023-11-21T03:25:17;22.30;;;14.90;;
35506;SDS011;36461;52.018;21.036;2023-11-21T03:27:46;22.00;;;14.40;;
35506;SDS011;36461;52.018;21.036;2023-11-21T03:30:14;18.40;;;12.90;;
35506;SDS011;36461;52.018;21.036;2023-11-21T03:32:43;19.00;;;12.60;;
35506;SDS011;36461;52.018;21.036;2023-11-21T03:35:13;19.00;;;12.80;;
35506;SDS011;36461;52.018;21.036;2023-11-21T03:37:42;19.80;;;13.60;;
35506;SDS011;36461;52.018;21.036;2023-11-21T03:40:12;23.00;;;15.20;;
35506;SDS011;36461;52.018;21.036;2023-11-21T03:42:41;22.60;;;15.20;;
35506;SDS011;36461;52.018;21.036;2023-11-21T03:45:09;19.10;;;13.30;;
35506;SDS011;36461;52.018;21.036;2023-11-21T03:47:43;20.60;;;14.30;;
35506;SDS011;36461;52.018;21.036;2023-11-21T03:50:12;21.20;;;13.70;;
35506;SDS011;36461;52.018;21.036;2023-11-21T03:52:40;22.90;;;14.70;;
35506;SDS011;36461;52.018;21.036;2023-11-21T03:55:09;21.80;;;14.70;;
35506;SDS011;36461;52.018;21.036;2023-11-21T03:57:40;18.90;;;12.90;;
35506;SDS011;36461;52.018;21.036;2023-11-21T04:00:09;18.10;;;12.90;;
35506;SDS011;36461;52.018;21.036;2023-11-21T04:02:41;21.80;;;13.80;;
35506;SDS011;36461;52.018;21.036;2023-11-21T04:05:10;18.20;;;12.50;;
35506;SDS011;36461;52.018;21.036;2023-11-21T04:07:38;19.40;;;13.30;;
35506;SDS011;36461;52.018;21.036;2023-11-21T04:10:07;18.90;;;12.70;;
35506;SDS011;36461;52.018;21.036;2023-11-21T04:12:37;16.80;;;12.80;;
35506;SDS011;36461;52.018;21.036;2023-11-21T04:15:06;18.50;;;13.30;;
35506;SDS011;36461;52.018;21.036;2023-11-21T04:17:36;17.10;;;12.60;;
35506;SDS011;36461;52.018;21.036;2023-11-21T04:20:05;16.20;;;11.90;;
35506;SDS011;36461;52.018;21.036;2023-11-21T04:22:37;15.50;;;11.30;;
35506;SDS011;36461;52.018;21.036;2023-11-21T04:25:09;16.70;;;12.10;;
35506;SDS011;36461;52.018;21.036;2023-11-21T04:27:39;18.80;;;12.80;;
35506;SDS011;36461;52.018;21.036;2023-11-21T04:30:08;15.40;;;11.50;;
35506;SDS011;36461;52.018;21.036;2023-11-21T04:32:38;15.40;;;11.20;;
35506;SDS011;36461;52.018;21.036;2023-11-21T04:35:15;15.60;;;10.70;;
35506;SDS011;36461;52.018;21.036;2023-11-21T04:37:43;15.40;;;10.50;;
35506;SDS011;36461;52.018;21.036;2023-11-21T04:40:12;13.80;;;10.50;;
35506;SDS011;36461;52.018;21.036;2023-11-21T04:42:40;13.10;;;9.70;;
35506;SDS011;36461;52.018;21.036;2023-11-21T04:45:08;13.20;;;9.50;;
35506;SDS011;36461;52.018;21.036;2023-11-21T04:47:37;10.60;;;8.40;;
35506;SDS011;36461;52.018;21.036;2023-11-21T04:50:06;11.20;;;9.00;;
35506;SDS011;36461;52.018;21.036;2023-11-21T04:52:34;10.30;;;7.90;;
35506;SDS011;36461;52.018;21.036;2023-11-21T04:55:02;15.10;;;10.20;;
35506;SDS011;36461;52.018;21.036;2023-11-21T04:57:31;10.90;;;8.70;;
35506;SDS011;36461;52.018;21.036;2023-11-21T04:59:59;12.20;;;9.10;;
35506;SDS011;36461;52.018;21.036;2023-11-21T05:02:27;14.50;;;8.90;;
35506;SDS011;36461;52.018;21.036;2023-11-21T05:05:02;11.80;;;8.60;;
35506;SDS011;36461;52.018;21.036;2023-11-21T05:07:34;14.00;;;9.30;;
35506;SDS011;36461;52.018;21.036;2023-11-21T05:10:04;10.50;;;7.90;;
35506;SDS011;36461;52.018;21.036;2023-11-21T05:12:41;9.60;;;7.90;;
35506;SDS011;36461;52.018;21.036;2023-11-21T05:15:10;10.30;;;8.40;;
35506;SDS011;36461;52.018;21.036;2023-11-21T05:17:42;11.10;;;8.30;;
35506;SDS011;36461;52.018;21.036;2023-11-21T05:20:13;11.50;;;8.30;;
35506;SDS011;36461;52.018;21.036;2023-11-21T05:22:42;12.50;;;8.90;;
35506;SDS011;36461;52.018;21.036;2023-11-21T05:25:11;11.60;;;8.30;;
35506;SDS011;36461;52.018;21.036;2023-11-21T05:27:40;10.60;;;8.00;;
35506;SDS011;36461;52.018;21.036;2023-11-21T05:30:08;11.90;;;9.30;;
35506;SDS011;36461;52.018;21.036;2023-11-21T05:32:41;12.00;;;9.50;;
35506;SDS011;36461;52.018;21.036;2023-11-21T05:35:12;12.70;;;8.80;;
35506;SDS011;36461;52.018;21.036;2023-11-21T05:37:45;14.10;;;9.80;;
35506;SDS011;36461;52.018;21.036;2023-11-21T05:40:14;12.60;;;10.00;;
35506;SDS011;36461;52.018;21.036;2023-11-21T05:42:43;12.80;;;9.40;;
35506;SDS011;36461;52.018;21.036;2023-11-21T05:45:12;13.30;;;9.50;;
35506;SDS011;36461;52.018;21.036;2023-11-21T05:47:42;12.70;;;9.80;;
35506;SDS011;36461;52.018;21.036;2023-11-21T05:50:12;12.50;;;9.60;;
35506;SDS011;36461;52.018;21.036;2023-11-21T05:52:45;13.40;;;9.90;;
35506;SDS011;36461;52.018;21.036;2023-11-21T05:55:14;13.50;;;10.20;;
35506;SDS011;36461;52.018;21.036;2023-11-21T05:57:43;11.80;;;9.30;;
35506;SDS011;36461;52.018;21.036;2023-11-21T06:00:13;12.80;;;9.30;;
35506;SDS011;36461;52.018;21.036;2023-11-21T06:02:50;15.30;;;10.30;;
35506;SDS011;36461;52.018;21.036;2023-11-21T06:05:22;12.40;;;9.90;;
35506;SDS011;36461;52.018;21.036;2023-11-21T06:07:53;15.00;;;10.50;;
35506;SDS011;36461;52.018;21.036;2023-11-21T06:10:23;13.60;;;9.90;;
35506;SDS011;36461;52.018;21.036;2023-11-21T06:12:52;13.00;;;9.90;;
35506;SDS011;36461;52.018;21.036;2023-11-21T06:15:21;14.50;;;10.10;;
35506;SDS011;36461;52.018;21.036;2023-11-21T06:17:51;14.40;;;10.60;;
35506;SDS011;36461;52.018;21.036;2023-11-21T06:20:21;12.10;;;9.20;;
35506;SDS011;36461;52.018;21.036;2023-11-21T06:22:51;11.90;;;9.60;;
35506;SDS011;36461;52.018;21.036;2023-11-21T06:25:20;13.50;;;10.20;;
35506;SDS011;36461;52.018;21.036;2023-11-21T06:27:49;15.50;;;11.00;;
35506;SDS011;36461;52.018;21.036;2023-11-21T06:30:19;13.00;;;9.70;;
35506;SDS011;36461;52.018;21.036;2023-11-21T06:32:48;14.50;;;10.20;;
35506;SDS011;36461;52.018;21.036;2023-11-21T06:35:18;14.60;;;10.10;;
35506;SDS011;36461;52.018;21.036;2023-11-21T06:37:46;13.70;;;10.00;;
35506;SDS011;36461;52.018;21.036;2023-11-21T06:40:18;13.20;;;9.20;;
35506;SDS011;36461;52.018;21.036;2023-11-21T06:42:48;13.70;;;9.80;;
35506;SDS011;36461;52.018;21.036;2023-11-21T06:45:18;13.60;;;9.70;;
35506;SDS011;36461;52.018;21.036;2023-11-21T06:47:48;12.90;;;10.00;;
35506;SDS011;36461;52.018;21.036;2023-11-21T06:50:17;14.30;;;10.20;;
35506;SDS011;36461;52.018;21.036;2023-11-21T06:52:46;13.50;;;9.50;;
35506;SDS011;36461;52.018;21.036;2023-11-21T06:55:14;11.80;;;9.30;;
35506;SDS011;36461;52.018;21.036;2023-11-21T06:57:44;12.60;;;9.80;;
35506;SDS011;36461;52.018;21.036;2023-11-21T07:00:13;11.00;;;8.70;;
35506;SDS011;36461;52.018;21.036;2023-11-21T07:02:46;13.00;;;9.60;;
35506;SDS011;36461;52.018;21.036;2023-11-21T07:05:14;12.50;;;9.10;;
35506;SDS011;36461;52.018;21.036;2023-11-21T07:07:43;12.10;;;9.40;;
35506;SDS011;36461;52.018;21.036;2023-11-21T07:10:12;12.20;;;9.20;;
35506;SDS011;36461;52.018;21.036;2023-11-21T07:12:40;12.70;;;9.20;;
35506;SDS011;36461;52.018;21.036;2023-11-21T07:15:09;10.40;;;8.40;;
35506;SDS011;36461;52.018;21.036;2023-11-21T07:17:37;10.70;;;8.50;;
35506;SDS011;36461;52.018;21.036;2023-11-21T07:20:09;14.50;;;9.50;;
35506;SDS011;36461;52.018;21.036;2023-11-21T07:22:39;11.30;;;8.60;;
35506;SDS011;36461;52.018;21.036;2023-11-21T07:25:08;12.90;;;8.90;;
35506;SDS011;36461;52.018;21.036;2023-11-21T07:27:37;11.80;;;8.20;;
35506;SDS011;36461;52.018;21.036;2023-11-21T07:30:05;13.50;;;9.90;;
35506;SDS011;36461;52.018;21.036;2023-11-21T07:32:35;12.20;;;8.90;;
35506;SDS011;36461;52.018;21.036;2023-11-21T07:35:08;9.70;;;7.50;;
35506;SDS011;36461;52.018;21.036;2023-11-21T07:37:37;11.10;;;8.60;;
35506;SDS011;36461;52.018;21.036;2023-11-21T07:40:06;11.00;;;8.10;;
35506;SDS011;36461;52.018;21.036;2023-11-21T07:42:37;11.20;;;8.50;;
35506;SDS011;36461;52.018;21.036;2023-11-21T07:45:06;10.90;;;7.90;;
35506;SDS011;36461;52.018;21.036;2023-11-21T07:47:37;10.20;;;8.10;;
35506;SDS011;36461;52.018;21.036;2023-11-21T07:50:07;10.20;;;8.00;;
35506;SDS011;36461;52.018;21.036;2023-11-21T07:52:37;12.10;;;8.30;;
35506;SDS011;36461;52.018;21.036;2023-11-21T07:55:05;11.20;;;8.60;;
35506;SDS011;36461;52.018;21.036;2023-11-21T07:57:35;10.10;;;8.30;;
35506;SDS011;36461;52.018;21.036;2023-11-21T08:00:04;10.00;;;7.30;;
35506;SDS011;36461;52.018;21.036;2023-11-21T08:02:41;10.50;;;8.40;;
35506;SDS011;36461;52.018;21.036;2023-11-21T08:05:14;10.80;;;8.00;;
35506;SDS011;36461;52.018;21.036;2023-11-21T08:07:55;12.80;;;8.80;;
35506;SDS011;36461;52.018;21.036;2023-11-21T08:10:24;11.10;;;8.80;;
35506;SDS011;36461;52.018;21.036;2023-11-21T08:12:53;12.30;;;9.10;;
35506;SDS011;36461;52.018;21.036;2023-11-21T08:15:21;12.90;;;9.00;;
35506;SDS011;36461;52.018;21.036;2023-11-21T08:17:49;14.00;;;9.80;;
35506;SDS011;36461;52.018;21.036;2023-11-21T08:20:18;12.30;;;9.50;;
35506;SDS011;36461;52.018;21.036;2023-11-21T08:22:46;13.80;;;10.20;;
35506;SDS011;36461;52.018;21.036;2023-11-21T08:25:16;12.40;;;9.50;;
35506;SDS011;36461;52.018;21.036;2023-11-21T08:27:48;13.60;;;9.70;;
35506;SDS011;36461;52.018;21.036;2023-11-21T08:30:16;11.10;;;8.30;;
35506;SDS011;36461;52.018;21.036;2023-11-21T08:32:47;10.80;;;8.60;;
35506;SDS011;36461;52.018;21.036;2023-11-21T08:35:16;9.90;;;7.50;;
35506;SDS011;36461;52.018;21.036;2023-11-21T08:37:45;11.60;;;8.70;;
35506;SDS011;36461;52.018;21.036;2023-11-21T08:40:13;9.90;;;7.50;;
35506;SDS011;36461;52.018;21.036;2023-11-21T08:42:45;14.40;;;8.50;;
35506;SDS011;36461;52.018;21.036;2023-11-21T08:45:14;10.60;;;8.00;;
35506;SDS011;36461;52.018;21.036;2023-11-21T08:47:45;11.10;;;8.20;;
35506;SDS011;36461;52.018;21.036;2023-11-21T08:50:14;10.60;;;7.40;;
35506;SDS011;36461;52.018;21.036;2023-11-21T08:52:43;11.20;;;8.70;;
35506;SDS011;36461;52.018;21.036;2023-11-21T08:55:13;10.30;;;7.80;;
35506;SDS011;36461;52.018;21.036;2023-11-21T08:57:45;10.20;;;7.50;;
35506;SDS011;36461;52.018;21.036;2023-11-21T09:00:14;8.90;;;7.60;;
35506;SDS011;36461;52.018;21.036;2023-11-21T09:02:45;10.20;;;7.60;;
35506;SDS011;36461;52.018;21.036;2023-11-21T09:05:14;10.60;;;8.20;;
35506;SDS011;36461;52.018;21.036;2023-11-21T09:07:43;9.80;;;7.90;;
35506;SDS011;36461;52.018;21.036;2023-11-21T09:10:14;10.60;;;8.20;;
35506;SDS011;36461;52.018;21.036;2023-11-21T09:12:42;9.80;;;7.70;;
35506;SDS011;36461;52.018;21.036;2023-11-21T09:15:11;10.30;;;7.70;;
35506;SDS011;36461;52.018;21.036;2023-11-21T09:17:39;11.10;;;8.20;;
35506;SDS011;36461;52.018;21.036;2023-11-21T09:20:08;11.40;;;8.00;;
35506;SDS011;36461;52.018;21.036;2023-11-21T09:22:38;12.30;;;8.80;;
35506;SDS011;36461;52.018;21.036;2023-11-21T09:25:07;11.10;;;7.80;;
35506;SDS011;36461;52.018;21.036;2023-11-21T09:27:36;10.50;;;7.80;;
35506;SDS011;36461;52.018;21.036;2023-11-21T09:30:05;10.40;;;8.10;;
35506;SDS011;36461;52.018;21.036;2023-11-21T09:32:40;12.60;;;8.80;;
35506;SDS011;36461;52.018;21.036;2023-11-21T09:35:09;11.60;;;8.60;;
35506;SDS011;36461;52.018;21.036;2023-11-21T09:37:37;11.40;;;8.70;;
35506;SDS011;36461;52.018;21.036;2023-11-21T09:40:09;14.90;;;9.40;;
35506;SDS011;36461;52.018;21.036;2023-11-21T09:42:57;12.00;;;9.10;;
35506;SDS011;36461;52.018;21.036;2023-11-21T09:45:27;12.30;;;9.10;;
35506;SDS011;36461;52.018;21.036;2023-11-21T09:47:57;12.30;;;9.40;;
35506;SDS011;36461;52.018;21.036;2023-11-21T09:50:26;12.40;;;9.30;;
35506;SDS011;36461;52.018;21.036;2023-11-21T09:53:08;11.90;;;9.30;;
35506;SDS011;36461;52.018;21.036;2023-11-21T09:55:50;12.70;;;8.70;;
35506;SDS011;36461;52.018;21.036;2023-11-21T09:58:20;12.30;;;9.60;;
35506;SDS011;36461;52.018;21.036;2023-11-21T10:00:53;12.20;;;9.50;;
35506;SDS011;36461;52.018;21.036;2023-11-21T10:03:24;14.50;;;10.80;;
35506;SDS011;36461;52.018;21.036;2023-11-21T10:05:54;14.60;;;10.40;;
35506;SDS011;36461;52.018;21.036;2023-11-21T10:08:27;12.00;;;10.10;;
35506;SDS011;36461;52.018;21.036;2023-11-21T10:11:16;11.90;;;8.90;;
35506;SDS011;36461;52.018;21.036;2023-11-21T10:13:47;11.70;;;9.50;;
35506;SDS011;36461;52.018;21.036;2023-11-21T10:16:18;11.80;;;9.10;;
35506;SDS011;36461;52.018;21.036;2023-11-21T10:18:51;14.60;;;10.50;;
35506;SDS011;36461;52.018;21.036;2023-11-21T10:21:38;16.00;;;11.20;;
35506;SDS011;36461;52.018;21.036;2023-11-21T10:24:07;12.50;;;9.00;;
35506;SDS011;36461;52.018;21.036;2023-11-21T10:26:36;13.30;;;9.90;;
35506;SDS011;36461;52.018;21.036;2023-11-21T10:29:19;13.20;;;9.70;;
35506;SDS011;36461;52.018;21.036;2023-11-21T10:31:50;15.00;;;9.50;;
35506;SDS011;36461;52.018;21.036;2023-11-21T10:34:19;14.50;;;10.40;;
35506;SDS011;36461;52.018;21.036;2023-11-21T10:36:48;16.20;;;11.20;;
35506;SDS011;36461;52.018;21.036;2023-11-21T10:39:17;14.70;;;10.90;;
35506;SDS011;36461;52.018;21.036;2023-11-21T10:41:47;14.40;;;10.50;;
35506;SDS011;36461;52.018;21.036;2023-11-21T10:44:17;17.40;;;11.30;;
35506;SDS011;36461;52.018;21.036;2023-11-21T10:46:55;13.90;;;10.50;;
35506;SDS011;36461;52.018;21.036;2023-11-21T10:49:25;13.50;;;10.00;;
35506;SDS011;36461;52.018;21.036;2023-11-21T10:51:56;13.00;;;10.30;;
35506;SDS011;36461;52.018;21.036;2023-11-21T10:54:24;13.60;;;9.80;;
35506;SDS011;36461;52.018;21.036;2023-11-21T10:56:57;12.60;;;10.40;;
35506;SDS011;36461;52.018;21.036;2023-11-21T10:59:30;12.80;;;10.10;;
35506;SDS011;36461;52.018;21.036;2023-11-21T11:02:01;13.70;;;9.90;;
35506;SDS011;36461;52.018;21.036;2023-11-21T11:04:36;14.60;;;10.40;;
35506;SDS011;36461;52.018;21.036;2023-11-21T11:07:06;14.10;;;10.50;;
35506;SDS011;36461;52.018;21.036;2023-11-21T11:09:39;15.90;;;11.10;;
35506;SDS011;36461;52.018;21.036;2023-11-21T11:12:08;15.30;;;11.50;;
35506;SDS011;36461;52.018;21.036;2023-11-21T11:14:40;16.30;;;11.80;;
35506;SDS011;36461;52.018;21.036;2023-11-21T11:17:09;16.70;;;12.00;;
35506;SDS011;36461;52.018;21.036;2023-11-21T11:19:38;16.90;;;11.90;;
35506;SDS011;36461;52.018;21.036;2023-11-21T11:24:52;14.70;;;11.60;;
35506;SDS011;36461;52.018;21.036;2023-11-21T11:33:09;15.40;;;11.60;;
35506;SDS011;36461;52.018;21.036;2023-11-21T11:38:45;15.50;;;11.60;;
35506;SDS011;36461;52.018;21.036;2023-11-21T11:41:27;16.00;;;12.20;;
35506;SDS011;36461;52.018;21.036;2023-11-21T11:44:00;17.00;;;12.20;;
35506;SDS011;36461;52.018;21.036;2023-11-21T11:49:31;18.10;;;12.40;;
35506;SDS011;36461;52.018;21.036;2023-11-21T11:55:08;15.80;;;11.90;;
35506;SDS011;36461;52.018;21.036;2023-11-21T11:57:39;14.90;;;11.40;;
35506;SDS011;36461;52.018;21.036;2023-11-21T12:00:12;15.90;;;11.10;;
35506;SDS011;36461;52.018;21.036;2023-11-21T12:02:53;16.20;;;11.40;;
35506;SDS011;36461;52.018;21.036;2023-11-21T12:05:25;14.50;;;10.60;;
35506;SDS011;36461;52.018;21.036;2023-11-21T12:08:02;16.70;;;11.60;;
35506;SDS011;36461;52.018;21.036;2023-11-21T12:10:35;15.20;;;11.70;;
35506;SDS011;36461;52.018;21.036;2023-11-21T12:13:08;16.00;;;11.60;;
35506;SDS011;36461;52.018;21.036;2023-11-21T12:15:40;16.60;;;12.60;;
35506;SDS011;36461;52.018;21.036;2023-11-21T12:18:10;17.20;;;12.60;;
35506;SDS011;36461;52.018;21.036;2023-11-21T12:20:39;18.20;;;12.90;;
35506;SDS011;36461;52.018;21.036;2023-11-21T12:23:09;18.70;;;13.10;;
35506;SDS011;36461;52.018;21.036;2023-11-21T12:25:39;18.30;;;11.80;;
35506;SDS011;36461;52.018;21.036;2023-11-21T12:28:10;16.00;;;11.50;;
35506;SDS011;36461;52.018;21.036;2023-11-21T12:30:40;15.40;;;11.70;;
35506;SDS011;36461;52.018;21.036;2023-11-21T12:33:09;18.20;;;12.10;;
35506;SDS011;36461;52.018;21.036;2023-11-21T12:35:38;17.30;;;11.50;;
35506;SDS011;36461;52.018;21.036;2023-11-21T12:38:07;16.70;;;11.80;;
35506;SDS011;36461;52.018;21.036;2023-11-21T12:40:37;15.40;;;11.20;;
35506;SDS011;36461;52.018;21.036;2023-11-21T12:43:06;18.40;;;11.90;;
35506;SDS011;36461;52.018;21.036;2023-11-21T12:45:35;17.20;;;12.00;;
35506;SDS011;36461;52.018;21.036;2023-11-21T12:48:06;20.20;;;11.90;;
35506;SDS011;36461;52.018;21.036;2023-11-21T12:50:39;18.00;;;12.70;;
35506;SDS011;36461;52.018;21.036;2023-11-21T12:53:11;16.40;;;11.80;;
35506;SDS011;36461;52.018;21.036;2023-11-21T12:55:41;15.60;;;11.40;;
35506;SDS011;36461;52.018;21.036;2023-11-21T12:58:11;18.20;;;12.00;;
35506;SDS011;36461;52.018;21.036;2023-11-21T13:00:47;19.90;;;13.40;;
35506;SDS011;36461;52.018;21.036;2023-11-21T13:03:16;18.20;;;12.20;;
35506;SDS011;36461;52.018;21.036;2023-11-21T13:05:48;18.20;;;12.40;;
35506;SDS011;36461;52.018;21.036;2023-11-21T13:08:23;17.50;;;11.60;;
35506;SDS011;36461;52.018;21.036;2023-11-21T13:10:53;15.00;;;11.30;;
35506;SDS011;36461;52.018;21.036;2023-11-21T13:13:27;15.60;;;11.20;;
35506;SDS011;36461;52.018;21.036;2023-11-21T13:15:59;16.80;;;11.60;;
35506;SDS011;36461;52.018;21.036;2023-11-21T13:18:29;17.00;;;12.20;;
35506;SDS011;36461;52.018;21.036;2023-11-21T13:20:59;16.80;;;11.70;;
35506;SDS011;36461;52.018;21.036;2023-11-21T13:23:37;16.30;;;11.40;;
35506;SDS011;36461;52.018;21.036;2023-11-21T13:26:06;16.80;;;12.40;;
35506;SDS011;36461;52.018;21.036;2023-11-21T13:28:36;14.80;;;11.40;;
35506;SDS011;36461;52.018;21.036;2023-11-21T13:31:06;15.70;;;11.50;;
35506;SDS011;36461;52.018;21.036;2023-11-21T13:33:39;15.70;;;11.50;;
35506;SDS011;36461;52.018;21.036;2023-11-21T13:36:10;23.80;;;15.80;;
35506;SDS011;36461;52.018;21.036;2023-11-21T13:38:41;25.70;;;17.90;;
35506;SDS011;36461;52.018;21.036;2023-11-21T13:41:11;36.30;;;23.60;;
35506;SDS011;36461;52.018;21.036;2023-11-21T13:43:42;26.90;;;18.20;;
35506;SDS011;36461;52.018;21.036;2023-11-21T13:46:16;22.30;;;15.40;;
35506;SDS011;36461;52.018;21.036;2023-11-21T13:48:50;19.40;;;14.30;;
35506;SDS011;36461;52.018;21.036;2023-11-21T13:51:24;21.00;;;14.90;;
35506;SDS011;36461;52.018;21.036;2023-11-21T13:54:05;16.50;;;12.40;;
35506;SDS011;36461;52.018;21.036;2023-11-21T13:56:37;39.90;;;24.10;;
35506;SDS011;36461;52.018;21.036;2023-11-21T13:59:08;38.80;;;21.70;;
35506;SDS011;36461;52.018;21.036;2023-11-21T14:02:02;26.20;;;14.30;;
35506;SDS011;36461;52.018;21.036;2023-11-21T14:04:44;93.40;;;43.50;;
35506;SDS011;36461;52.018;21.036;2023-11-21T14:07:23;85.20;;;40.20;;
35506;SDS011;36461;52.018;21.036;2023-11-21T14:10:04;32.70;;;18.40;;
35506;SDS011;36461;52.018;21.036;2023-11-21T14:12:35;31.90;;;18.70;;
35506;SDS011;36461;52.018;21.036;2023-11-21T14:15:07;25.50;;;15.50;;
35506;SDS011;36461;52.018;21.036;2023-11-21T14:17:38;19.90;;;13.40;;
35506;SDS011;36461;52.018;21.036;2023-11-21T14:20:09;21.50;;;14.60;;
35506;SDS011;36461;52.018;21.036;2023-11-21T14:22:44;19.70;;;14.10;;
35506;SDS011;36461;52.018;21.036;2023-11-21T14:25:13;20.30;;;14.00;;
35506;SDS011;36461;52.018;21.036;2023-11-21T14:27:42;27.10;;;19.60;;
35506;SDS011;36461;52.018;21.036;2023-11-21T14:30:11;19.70;;;13.70;;
35506;SDS011;36461;52.018;21.036;2023-11-21T14:32:41;22.90;;;14.60;;
35506;SDS011;36461;52.018;21.036;2023-11-21T14:35:10;20.20;;;13.10;;
35506;SDS011;36461;52.018;21.036;2023-11-21T14:37:38;22.80;;;16.00;;
35506;SDS011;36461;52.018;21.036;2023-11-21T14:40:07;36.80;;;21.10;;
35506;SDS011;36461;52.018;21.036;2023-11-21T14:42:36;42.70;;;22.50;;
35506;SDS011;36461;52.018;21.036;2023-11-21T14:45:07;24.00;;;14.90;;
35506;SDS011;36461;52.018;21.036;2023-11-21T14:47:36;20.80;;;14.00;;
35506;SDS011;36461;52.018;21.036;2023-11-21T14:50:06;38.60;;;23.70;;